地図

経路データ

SID SEASON NUMBER BASIN SUBBASIN NAME ISO_TIME NATURE LAT LON WMO_WIND WMO_PRES WMO_AGENCY TRACK_TYPE DIST2LAND LANDFALL IFLAG USA_AGENCY USA_ATCF_ID USA_LAT USA_LON USA_RECORD USA_STATUS USA_WIND USA_PRES USA_SSHS USA_R34_NE USA_R34_SE USA_R34_SW USA_R34_NW USA_R50_NE USA_R50_SE USA_R50_SW USA_R50_NW USA_R64_NE USA_R64_SE USA_R64_SW USA_R64_NW USA_POCI USA_ROCI USA_RMW USA_EYE TOKYO_LAT TOKYO_LON TOKYO_GRADE TOKYO_WIND TOKYO_PRES TOKYO_R50_DIR TOKYO_R50_LONG TOKYO_R50_SHORT TOKYO_R30_DIR TOKYO_R30_LONG TOKYO_R30_SHORT TOKYO_LAND CMA_LAT CMA_LON CMA_CAT CMA_WIND CMA_PRES HKO_LAT HKO_LON HKO_CAT HKO_WIND HKO_PRES NEWDELHI_LAT NEWDELHI_LON NEWDELHI_GRADE NEWDELHI_WIND NEWDELHI_PRES NEWDELHI_CI NEWDELHI_DP NEWDELHI_POCI REUNION_LAT REUNION_LON REUNION_TYPE REUNION_WIND REUNION_PRES REUNION_TNUM REUNION_CI REUNION_RMW REUNION_R34_NE REUNION_R34_SE REUNION_R34_SW REUNION_R34_NW REUNION_R50_NE REUNION_R50_SE REUNION_R50_SW REUNION_R50_NW REUNION_R64_NE REUNION_R64_SE REUNION_R64_SW REUNION_R64_NW BOM_LAT BOM_LON BOM_TYPE BOM_WIND BOM_PRES BOM_TNUM BOM_CI BOM_RMW BOM_R34_NE BOM_R34_SE BOM_R34_SW BOM_R34_NW BOM_R50_NE BOM_R50_SE BOM_R50_SW BOM_R50_NW BOM_R64_NE BOM_R64_SE BOM_R64_SW BOM_R64_NW BOM_ROCI BOM_POCI BOM_EYE BOM_POS_METHOD BOM_PRES_METHOD NADI_LAT NADI_LON NADI_CAT NADI_WIND NADI_PRES WELLINGTON_LAT WELLINGTON_LON WELLINGTON_WIND WELLINGTON_PRES DS824_LAT DS824_LON DS824_STAGE DS824_WIND DS824_PRES TD9636_LAT TD9636_LON TD9636_STAGE TD9636_WIND TD9636_PRES TD9635_LAT TD9635_LON TD9635_WIND TD9635_PRES TD9635_ROCI NEUMANN_LAT NEUMANN_LON NEUMANN_CLASS NEUMANN_WIND NEUMANN_PRES MLC_LAT MLC_LON MLC_CLASS MLC_WIND MLC_PRES USA_GUST BOM_GUST BOM_GUST_PER REUNION_GUST REUNION_GUST_PER USA_SEAHGT USA_SEARAD_NE USA_SEARAD_SE USA_SEARAD_SW USA_SEARAD_NW STORM_SPEED STORM_DIR
1876257N14319 1876 18 NA NA NOT_NAMED 1876-09-12 12:00:00 TS 14.0000 -41.5000 main 1528 1528 _____________O -1 14.0000 -41.5000 TS 35 12 316
1876257N14319 1876 18 NA NA NOT_NAMED 1876-09-12 15:00:00 TS 14.4127 -41.9121 main 1530 1530 _____________P -1 14.4127 -41.9121 TS 35 11 316
1876257N14319 1876 18 NA NA NOT_NAMED 1876-09-12 18:00:00 TS 14.8000 -42.3000 main 1534 1534 _____________O -1 14.8000 -42.3000 TS 35 10 316
1876257N14319 1876 18 NA NA NOT_NAMED 1876-09-12 21:00:00 TS 15.1499 -42.6503 main 1533 1533 _____________P -1 15.1499 -42.6503 TS 35 10 316
1876257N14319 1876 18 NA NA NOT_NAMED 1876-09-13 00:00:00 TS 15.5000 -43.0000 main 1548 1548 _____________O -1 15.5000 -43.0000 TS 35 10 316
1876257N14319 1876 18 NA NA NOT_NAMED 1876-09-13 03:00:00 TS 15.9000 -43.4000 main 1560 1560 _____________P -1 15.9000 -43.4000 TS 35 11 316
1876257N14319 1876 18 NA NA NOT_NAMED 1876-09-13 06:00:00 TS 16.3000 -43.8000 main 1570 1566 _____________O -1 16.3000 -43.8000 TS 35 11 314
1876257N14319 1876 18 NA NA NOT_NAMED 1876-09-13 09:00:00 TS 16.6350 -44.1876 main 1571 1571 _____________P -1 16.6350 -44.1876 TS 37 10 316
1876257N14319 1876 18 NA NA NOT_NAMED 1876-09-13 12:00:00 TS 17.0000 -44.5000 main 1589 1589 _____________O -1 17.0000 -44.5000 TS 40 10 330
1876257N14319 1876 18 NA NA NOT_NAMED 1876-09-13 15:00:00 TS 17.4774 -44.6876 main 1623 1623 _____________P -1 17.4774 -44.6876 TS 40 10 344
1876257N14319 1876 18 NA NA NOT_NAMED 1876-09-13 18:00:00 TS 18.0000 -44.8000 main 1665 1665 _____________O -1 18.0000 -44.8000 TS 40 11 348
1876257N14319 1876 18 NA NA NOT_NAMED 1876-09-13 21:00:00 TS 18.5000 -44.9151 main 1708 1708 _____________P -1 18.5000 -44.9151 TS 40 10 349
1876257N14319 1876 18 NA NA NOT_NAMED 1876-09-14 00:00:00 TS 19.0000 -45.0000 main 1751 1751 _____________O -1 19.0000 -45.0000 TS 40 10 352
1876257N14319 1876 18 NA NA NOT_NAMED 1876-09-14 03:00:00 TS 19.5000 -45.0576 main 1795 1795 _____________P -1 19.5000 -45.0576 TS 40 10 354
1876257N14319 1876 18 NA NA NOT_NAMED 1876-09-14 06:00:00 TS 20.0000 -45.1000 main 1844 1844 _____________O -1 20.0000 -45.1000 TS 40 10 354
1876257N14319 1876 18 NA NA NOT_NAMED 1876-09-14 09:00:00 TS 20.4850 -45.1649 main 1889 1889 _____________P -1 20.4850 -45.1649 TS 42 10 354
1876257N14319 1876 18 NA NA NOT_NAMED 1876-09-14 12:00:00 TS 21.0000 -45.2000 main 1939 1939 _____________O -1 21.0000 -45.2000 TS 45 11 359
1876257N14319 1876 18 NA NA NOT_NAMED 1876-09-14 15:00:00 TS 21.5925 -45.1651 main 2000 2000 _____________P -1 21.5925 -45.1651 TS 45 12 5
1876257N14319 1876 18 NA NA NOT_NAMED 1876-09-14 18:00:00 TS 22.2000 -45.1000 main 2065 2065 _____________O -1 22.2000 -45.1000 TS 45 12 5
1876257N14319 1876 18 NA NA NOT_NAMED 1876-09-14 21:00:00 TS 22.7575 -45.0648 main 2126 2126 _____________P -1 22.7575 -45.0648 TS 45 11 5
1876257N14319 1876 18 NA NA NOT_NAMED 1876-09-15 00:00:00 TS 23.3000 -45.0000 main 2181 2181 _____________O -1 23.3000 -45.0000 TS 45 11 10
1876257N14319 1876 18 NA NA NOT_NAMED 1876-09-15 03:00:00 TS 23.8500 -44.8577 main 2229 2229 _____________P -1 23.8500 -44.8577 TS 45 11 14
1876257N14319 1876 18 NA NA NOT_NAMED 1876-09-15 06:00:00 TS 24.4000 -44.7000 main 2261 2261 _____________O -1 24.4000 -44.7000 TS 45 11 11
1876257N14319 1876 18 NA NA NOT_NAMED 1876-09-15 09:00:00 TS 24.9424 -44.6219 main 2285 2285 _____________P -1 24.9424 -44.6219 TS 47 11 9
1876257N14319 1876 18 NA NA NOT_NAMED 1876-09-15 12:00:00 TS 25.5000 -44.5000 main 2312 2312 _____________O -1 25.5000 -44.5000 TS 50 12 17
1876257N14319 1876 18 NA NA NOT_NAMED 1876-09-15 15:00:00 TS 26.1001 -44.2228 main 2359 2359 _____________P -1 26.1001 -44.2228 TS 50 13 24
1876257N14319 1876 18 NA NA NOT_NAMED 1876-09-15 18:00:00 TS 26.7000 -43.9000 main 2362 2315 _____________O -1 26.7000 -43.9000 TS 50 13 24
1876257N14319 1876 18 NA NA NOT_NAMED 1876-09-15 21:00:00 TS 27.2499 -43.6494 main 2318 2261 _____________P -1 27.2499 -43.6494 TS 50 12 22
1876257N14319 1876 18 NA NA NOT_NAMED 1876-09-16 00:00:00 TS 27.8000 -43.4000 main 2261 2208 _____________O -1 27.8000 -43.4000 TS 50 12 23
1876257N14319 1876 18 NA NA NOT_NAMED 1876-09-16 03:00:00 TS 28.3925 -43.1000 main 2208 2156 _____________P -1 28.3925 -43.1000 TS 50 13 24
1876257N14319 1876 18 NA NA NOT_NAMED 1876-09-16 06:00:00 TS 29.0000 -42.8000 main 2156 2112 _____________O -1 29.0000 -42.8000 TS 50 13 22
1876257N14319 1876 18 NA NA NOT_NAMED 1876-09-16 09:00:00 TS 29.5773 -42.5639 main 2102 2052 _____________P -1 29.5773 -42.5639 TS 50 13 20
1876257N14319 1876 18 NA NA NOT_NAMED 1876-09-16 12:00:00 TS 30.2000 -42.3000 main 2052 1993 _____________O -1 30.2000 -42.3000 TS 50 15 22
1876257N14319 1876 18 NA NA NOT_NAMED 1876-09-16 15:00:00 TS 30.9350 -41.9300 main 1997 1935 _____________P -1 30.9350 -41.9300 TS 50 17 25
1876257N14319 1876 18 NA NA NOT_NAMED 1876-09-16 18:00:00 TS 31.7000 -41.5000 main 1935 1884 _____________O -1 31.7000 -41.5000 TS 50 17 27
1876257N14319 1876 18 NA NA NOT_NAMED 1876-09-16 21:00:00 TS 32.4000 -41.0494 main 1889 1840 _____________P -1 32.4000 -41.0494 TS 50 16 28
1876257N14319 1876 18 NA NA NOT_NAMED 1876-09-17 00:00:00 TS 33.1000 -40.6000 main 1840 1795 _____________O -1 33.1000 -40.6000 TS 50 16 26
1876257N14319 1876 18 NA NA NOT_NAMED 1876-09-17 03:00:00 TS 33.8498 -40.1918 main 1795 1742 _____________P -1 33.8498 -40.1918 TS 50 16 24
1876257N14319 1876 18 NA NA NOT_NAMED 1876-09-17 06:00:00 TS 34.6000 -39.8000 main 1742 1700 _____________O -1 34.6000 -39.8000 TS 50 15 22
1876257N14319 1876 18 NA NA NOT_NAMED 1876-09-17 09:00:00 TS 35.2683 -39.5000 main 1696 1664 _____________P -1 35.2683 -39.5000 TS 50 15 25
1876257N14319 1876 18 NA NA NOT_NAMED 1876-09-17 12:00:00 TS 36.0000 -39.0000 main 1664 1645 _____________O -1 36.0000 -39.0000 TS 50 20 36
1876257N14319 1876 18 NA NA NOT_NAMED 1876-09-17 15:00:00 TS 36.9141 -37.9996 main 1651 1645 _____________P -1 36.9141 -37.9996 TS 50 26 43
1876257N14319 1876 18 NA NA NOT_NAMED 1876-09-17 18:00:00 TS 37.9000 -36.8000 main 1649 1646 _____________O -1 37.9000 -36.8000 TS 50 26 43
1876257N14319 1876 18 NA NA NOT_NAMED 1876-09-17 21:00:00 TS 38.8488 -35.7394 main 1658 1651 _____________P -1 38.8488 -35.7394 TS 50 25 41
1876257N14319 1876 18 NA NA NOT_NAMED 1876-09-18 00:00:00 TS 39.8000 -34.7000 main 1662 1662 _____________O -1 39.8000 -34.7000 TS 50 25 40
1876257N14319 1876 18 NA NA NOT_NAMED 1876-09-18 03:00:00 TS 40.7565 -33.6474 main 1677 1677 _____________P -1 40.7565 -33.6474 TS 47 25 40
1876257N14319 1876 18 NA NA NOT_NAMED 1876-09-18 06:00:00 TS 41.7000 -32.6000 main 1697 1697 _____________O -1 41.7000 -32.6000 TS 45 24 40
1876257N14319 1876 18 NA NA NOT_NAMED 1876-09-18 09:00:00 TS 42.6119 -31.5558 main 1724 1715 _____________P -1 42.6119 -31.5558 TS 45 24 41
1876257N14319 1876 18 NA NA NOT_NAMED 1876-09-18 12:00:00 ET 43.5000 -30.5000 main 1707 _____________O -1 43.5000 -30.5000 EX 45 23 41

IBTrACS Databaseについて

本データベースは、米国NOAAが公開する1842年以降の世界の熱帯低気圧のベストトラックデータアーカイブInternational Best Track Archive for Climate Stewardship (IBTrACS)を、ウェブで閲覧しやすい形式に変換したものです。

最終更新日:2021-12-06